Laura Schulte — A8RF9 — position and weather

sailwx.info

Track history (hours):
 
Tides and Currents Weather Stations Pressure Air Temp Water Temp Dewpoint Dewpoint Depression Visibility Wind Speed Wind Dir Waves Ship Positions

Laura Schulte

Last reported at 2018-Feb-24 19:00 UTC. Time now 2018-Feb-24 19:28 UTC.
Position N 35°40' E 014°25'.

Length 175 m; draft 8 m.

Type: Cargo ship. MMSI: 636018395.

Date/timePositionNaut miles runAvg speedWind from/ knotsBaromVisibWave heightAir tempDewpointWater temp
2018-Feb-24 19:00N 35°40' E 014°25'4 7.7
2018-Feb-24 18:30N 35°44' E 014°25'2 3.6
2018-Feb-24 18:00N 35°46' E 014°25'0 0.7
2018-Feb-24 17:30N 35°46' E 014°25'0 0.7
2018-Feb-24 16:58N 35°45' E 014°24'0 0.6
2018-Feb-24 16:30N 35°45' E 014°24'0 0.5
2018-Feb-24 16:00N 35°45' E 014°24'0 0.6
2018-Feb-24 15:30N 35°45' E 014°23'0 0.8
2018-Feb-24 14:59N 35°45' E 014°23'0 0.8
2018-Feb-24 14:30N 35°45' E 014°22'0 0.5
2018-Feb-24 14:00N 35°45' E 014°22'3 5.1
2018-Feb-24 13:30N 35°44' E 014°25'611.6
2018-Feb-24 13:00N 35°41' E 014°31'611.3
2018-Feb-24 12:29N 35°38' E 014°38'3 0.3
2018-Feb-24 04:07N 35°36' E 014°40'0 1.9
2018-Feb-24 03:54N 35°36' E 014°40'4 2.0
2018-Feb-24 02:01N 35°38' E 014°36'0 2.0
2018-Feb-24 01:48N 35°38' E 014°35'1 2.0
2018-Feb-24 01:30N 35°39' E 014°34'4 2.0
2018-Feb-23 23:42N 35°41' E 014°31'1 2.0
2018-Feb-23 23:17N 35°41' E 014°30'1 2.0
2018-Feb-23 22:58N 35°42' E 014°29'1 2.1
2018-Feb-23 22:30N 35°42' E 014°28'1 2.1
2018-Feb-23 22:00N 35°43' E 014°27'1 2.2
2018-Feb-23 21:30N 35°44' E 014°26'1 2.2
2018-Feb-23 21:00N 35°44' E 014°26'510.3
2018-Feb-23 20:29N 35°47' E 014°20'612.5
2018-Feb-23 19:59N 35°50' E 014°13'612.7
2018-Feb-23 19:29N 35°53' E 014°06'613.0
2018-Feb-23 19:00N 35°56' E 013°59'612.8
2018-Feb-23 18:30N 35°60' E 013°53'712.2
2018-Feb-23 17:58N 36°03' E 013°46'  
2018-Feb-15 17:06N 36°26' E 013°50'313.5
2018-Feb-15 16:53N 36°25' E 013°53'513.1
2018-Feb-15 16:28N 36°23' E 013°59'613.2
2018-Feb-15 16:00N 36°20' E 014°06'713.4
2018-Feb-15 15:29N 36°17' E 014°13'713.5
2018-Feb-15 15:00N 36°14' E 014°21'713.3
2018-Feb-15 14:30N 36°11' E 014°28'612.5
2018-Feb-15 14:00N 36°07' E 014°34'612.7
2018-Feb-15 13:30N 36°01' E 014°36'612.5
2018-Feb-15 13:00N 35°55' E 014°38'611.6
2018-Feb-15 12:30N 35°49' E 014°37'4 7.5
2018-Feb-15 11:56N 35°49' E 014°32'0 0.8
2018-Feb-15 11:27N 35°49' E 014°32'0 0.0
2018-Feb-15 10:53N 35°49' E 014°32'  
Track history (hours):
 
Tides and Currents Weather Stations Pressure Air Temp Water Temp Dewpoint Dewpoint Depression Visibility Wind Speed Wind Dir Waves Ship Positions

Laura Schulte

Last reported at 2018-Feb-24 19:00 UTC. Time now 2018-Feb-24 19:28 UTC.
Position N 35°40' E 014°25'.

Length 175 m; draft 8 m.

Type: Cargo ship. MMSI: 636018395.

Date/timePositionNaut miles runAvg speedWind from/ knotsBaromVisibWave heightAir tempDewpointWater temp
2018-Feb-24 19:00N 35°40' E 014°25'4 7.7
2018-Feb-24 18:30N 35°44' E 014°25'2 3.6
2018-Feb-24 18:00N 35°46' E 014°25'0 0.7
2018-Feb-24 17:30N 35°46' E 014°25'0 0.7
2018-Feb-24 16:58N 35°45' E 014°24'0 0.6
2018-Feb-24 16:30N 35°45' E 014°24'0 0.5
2018-Feb-24 16:00N 35°45' E 014°24'0 0.6
2018-Feb-24 15:30N 35°45' E 014°23'0 0.8
2018-Feb-24 14:59N 35°45' E 014°23'0 0.8
2018-Feb-24 14:30N 35°45' E 014°22'0 0.5
2018-Feb-24 14:00N 35°45' E 014°22'3 5.1
2018-Feb-24 13:30N 35°44' E 014°25'611.6
2018-Feb-24 13:00N 35°41' E 014°31'611.3
2018-Feb-24 12:29N 35°38' E 014°38'3 0.3
2018-Feb-24 04:07N 35°36' E 014°40'0 1.9
2018-Feb-24 03:54N 35°36' E 014°40'4 2.0
2018-Feb-24 02:01N 35°38' E 014°36'0 2.0
2018-Feb-24 01:48N 35°38' E 014°35'1 2.0
2018-Feb-24 01:30N 35°39' E 014°34'4 2.0
2018-Feb-23 23:42N 35°41' E 014°31'1 2.0
2018-Feb-23 23:17N 35°41' E 014°30'1 2.0
2018-Feb-23 22:58N 35°42' E 014°29'1 2.1
2018-Feb-23 22:30N 35°42' E 014°28'1 2.1
2018-Feb-23 22:00N 35°43' E 014°27'1 2.2
2018-Feb-23 21:30N 35°44' E 014°26'1 2.2
2018-Feb-23 21:00N 35°44' E 014°26'510.3
2018-Feb-23 20:29N 35°47' E 014°20'612.5
2018-Feb-23 19:59N 35°50' E 014°13'612.7
2018-Feb-23 19:29N 35°53' E 014°06'613.0
2018-Feb-23 19:00N 35°56' E 013°59'612.8
2018-Feb-23 18:30N 35°60' E 013°53'712.2
2018-Feb-23 17:58N 36°03' E 013°46'  
2018-Feb-15 17:06N 36°26' E 013°50'313.5
2018-Feb-15 16:53N 36°25' E 013°53'513.1
2018-Feb-15 16:28N 36°23' E 013°59'613.2
2018-Feb-15 16:00N 36°20' E 014°06'713.4
2018-Feb-15 15:29N 36°17' E 014°13'713.5
2018-Feb-15 15:00N 36°14' E 014°21'713.3
2018-Feb-15 14:30N 36°11' E 014°28'612.5
2018-Feb-15 14:00N 36°07' E 014°34'612.7
2018-Feb-15 13:30N 36°01' E 014°36'612.5
2018-Feb-15 13:00N 35°55' E 014°38'611.6
2018-Feb-15 12:30N 35°49' E 014°37'4 7.5
2018-Feb-15 11:56N 35°49' E 014°32'0 0.8
2018-Feb-15 11:27N 35°49' E 014°32'0 0.0
2018-Feb-15 10:53N 35°49' E 014°32'  

Dump ship's entire track history